^^
Grace C. Lehan Memorial Weather Station Historical Data
Daily Summary for July 18, 2021 Units:  Metric    English   Both
Daily Weekly Monthly Yearly
  High: Low: Average:
Temperature: 5.7 °C 2.5 °C 3.9 °C
Dew Point: 2.1 °C -1.6 °C 0.7 °C
Humidity: 95% 59.9% 81%
Wind Speed: 5km/h 0km/h 0.8km/h
Wind Gust: 17.7km/h - -
Wind- - South
Pressure: 1021.9 hPa 1008.7 hPa -
Precipitation: 8.38 mm    
 
 
Tabular Data for July 18, 2021
Time Temperature Dew Point Pressure Wind Wind Speed Wind Gust Humidity Rainfall Rate (Hourly) solar
00:04 5.7 °C -1.5 °C 1021.2 hPa NW 1 km/h 17.7 km/h 59.9% 0 mm 0 W/m2
00:09 5.6 °C -1.6 °C 1021.2 hPa NW 2.4 km/h 9.7 km/h 60% 0 mm 0 W/m2
00:14 5.5 °C -1.6 °C 1021.2 hPa WNW 5 km/h 17.7 km/h 60% 0 mm 0 W/m2
00:19 5.5 °C -1.5 °C 1021.2 hPa WNW 0.6 km/h 17.7 km/h 60.7% 0 mm 0 W/m2
00:24 5.4 °C -1.4 °C 1021.2 hPa WNW 4.3 km/h 17.7 km/h 61.4% 0 mm 0 W/m2
00:29 5.3 °C -1.6 °C 1021.2 hPa WNW 2.9 km/h 17.7 km/h 61.2% 0 mm 0 W/m2
00:34 5.3 °C -1.6 °C 1021.2 hPa WNW 0.3 km/h 17.7 km/h 61.2% 0 mm 0 W/m2
00:39 5.3 °C -1.6 °C 1021.6 hPa Calm   4.8 km/h 61.2% 0 mm 0 W/m2
00:44 5.3 °C -1.6 °C 1021.2 hPa Calm   4.8 km/h 61% 0 mm 0 W/m2
00:49 5.3 °C -1.5 °C 1021.6 hPa WNW 1 km/h 6.4 km/h 61.6% 0 mm 0 W/m2
00:54 5.3 °C -1.4 °C 1021.6 hPa WNW 1.9 km/h 9.7 km/h 62% 0 mm 0 W/m2
00:59 5.3 °C -1.4 °C 1021.6 hPa WNW 1.4 km/h 9.7 km/h 62% 0 mm 0 W/m2
01:04 5.3 °C -1.4 °C 1021.6 hPa WNW 0.2 km/h 9.7 km/h 62% 0 mm 0 W/m2
01:09 5.3 °C -1.4 °C 1021.6 hPa WNW 2.7 km/h 11.3 km/h 62% 0 mm 0 W/m2
01:14 5.3 °C -1.3 °C 1021.2 hPa WNW 3.7 km/h 12.9 km/h 62.5% 0 mm 0 W/m2
01:19 5.3 °C -1.3 °C 1021.2 hPa WNW 4.7 km/h 14.5 km/h 62.3% 0 mm 0 W/m2
01:24 5.3 °C -1.4 °C 1021.2 hPa WNW 4.7 km/h 14.5 km/h 62% 0 mm 0 W/m2
01:29 5.3 °C -1.3 °C 1021.2 hPa WNW 0.2 km/h 14.5 km/h 62.2% 0 mm 0 W/m2
01:34 5.3 °C -1.3 °C 1021.2 hPa WNW 1.3 km/h 14.5 km/h 62.4% 0 mm 0 W/m2
01:39 5.3 °C -1.3 °C 1021.2 hPa Calm   6.4 km/h 62.6% 0 mm 0 W/m2
01:44 5.3 °C -1.3 °C 1021.2 hPa WNW 3.4 km/h 11.3 km/h 62.4% 0 mm 0 W/m2
01:49 5.2 °C -1.3 °C 1021.6 hPa WNW 2.7 km/h 11.3 km/h 62.5% 0 mm 0 W/m2
01:54 5.2 °C -1.2 °C 1021.6 hPa WNW 3.9 km/h 11.3 km/h 63% 0 mm 0 W/m2
01:59 5.2 °C -1.2 °C 1021.6 hPa WNW 1.8 km/h 11.3 km/h 63% 0 mm 0 W/m2
02:04 5.2 °C -1.2 °C 1021.6 hPa NW 2.9 km/h 11.3 km/h 63% 0 mm 0 W/m2
02:09 5.2 °C -1.3 °C 1021.6 hPa NW 0.6 km/h 11.3 km/h 63% 0 mm 0 W/m2
02:14 5.2 °C -1.3 °C 1021.6 hPa NW 1.1 km/h 11.3 km/h 63% 0 mm 0 W/m2
02:19 5.2 °C -1.3 °C 1021.6 hPa NW 2.6 km/h 11.3 km/h 63% 0 mm 0 W/m2
02:24 5.1 °C -1.3 °C 1021.6 hPa NW 1.8 km/h 11.3 km/h 63% 0 mm 0 W/m2
02:29 5.1 °C -1.2 °C 1021.9 hPa NW 1.4 km/h 11.3 km/h 63.5% 0 mm 0 W/m2
02:34 5.1 °C -1.1 °C 1021.9 hPa NW 1.4 km/h 11.3 km/h 64% 0 mm 0 W/m2
02:39 5.1 °C -1.1 °C 1021.9 hPa NW 0.3 km/h 8 km/h 64% 0 mm 0 W/m2
02:44 5.1 °C -1.1 °C 1021.6 hPa NW 2.4 km/h 9.7 km/h 64% 0 mm 0 W/m2
02:49 5.1 °C -1.1 °C 1021.9 hPa NW 0.5 km/h 9.7 km/h 64% 0 mm 0 W/m2
02:54 5.1 °C -1.1 °C 1021.6 hPa NW 0.5 km/h 9.7 km/h 64% 0 mm 0 W/m2
02:59 5.1 °C -1.2 °C 1021.6 hPa NW 1 km/h 9.7 km/h 64% 0 mm 0 W/m2
03:04 5.1 °C -1.2 °C 1021.9 hPa NW 0.2 km/h 9.7 km/h 64% 0 mm 0 W/m2
03:09 5.1 °C -1.1 °C 1021.6 hPa NW 1.4 km/h 8 km/h 64% 0 mm 0 W/m2
03:14 5.1 °C -1.1 °C 1021.9 hPa NW 0.3 km/h 8 km/h 64% 0 mm 0 W/m2
03:19 5.1 °C -1.1 °C 1021.6 hPa NW 0.2 km/h 8 km/h 64.2% 0 mm 0 W/m2
03:24 5.1 °C -1.1 °C 1021.6 hPa Calm   8 km/h 64.1% 0 mm 0 W/m2
03:29 5.1 °C -0.9 °C 1021.6 hPa Calm   8 km/h 64.9% 0 mm 0 W/m2
03:34 5.1 °C -0.9 °C 1021.2 hPa Calm   8 km/h 65.1% 0 mm 0 W/m2
03:39 5.1 °C -0.9 °C 1021.2 hPa NW 0.2 km/h 4.8 km/h 65% 0 mm 0 W/m2
03:44 5.1 °C -0.9 °C 1021.2 hPa NW 0.6 km/h 4.8 km/h 65% 0 mm 0 W/m2
03:49 5.1 °C -0.9 °C 1021.2 hPa NW 0.6 km/h 4.8 km/h 65% 0 mm 0 W/m2
03:54 5.1 °C -0.8 °C 1021.2 hPa NW 0.5 km/h 6.4 km/h 65.6% 0 mm 0 W/m2
03:59 5 °C -0.9 °C 1021.2 hPa Calm   6.4 km/h 65.7% 0 mm 0 W/m2
04:00 5 °C -1 °C 1020.9 hPa Calm   6.4 km/h 65% 0 mm 0 W/m2
04:09 5 °C -0.8 °C 1021.2 hPa NW 1.3 km/h 8 km/h 66% 0 mm 0 W/m2
04:14 4.9 °C -0.9 °C 1021.2 hPa Calm   8 km/h 66% 0 mm 0 W/m2
04:19 4.9 °C -0.9 °C 1021.2 hPa NW 2.3 km/h 9.7 km/h 66% 0 mm 0 W/m2
04:24 4.9 °C -0.8 °C 1021.2 hPa NW 1 km/h 9.7 km/h 66.1% 0 mm 0 W/m2
04:29 4.9 °C -0.7 °C 1020.9 hPa NW 0.8 km/h 9.7 km/h 67% 0 mm 0 W/m2
04:34 4.9 °C -0.7 °C 1020.5 hPa NW 1.9 km/h 12.9 km/h 66.9% 0 mm 0 W/m2
04:39 4.9 °C -0.8 °C 1020.9 hPa Calm   12.9 km/h 66.3% 0 mm 0 W/m2
04:44 4.9 °C -0.8 °C 1020.9 hPa NW 4.2 km/h 12.9 km/h 66.7% 0 mm 0 W/m2
04:49 4.8 °C -0.9 °C 1020.9 hPa NW 2.7 km/h 12.9 km/h 66.3% 0 mm 0 W/m2
04:54 4.8 °C -0.9 °C 1020.9 hPa NNW 0.6 km/h 12.9 km/h 66.5% 0 mm 0 W/m2
04:59 4.8 °C -0.8 °C 1020.9 hPa NNW 0.6 km/h 12.9 km/h 67% 0 mm 0 W/m2
05:04 4.8 °C -0.8 °C 1020.9 hPa NNW 0.8 km/h 12.9 km/h 67% 0 mm 0 W/m2
05:09 4.8 °C -0.8 °C 1021.2 hPa NNW 0.2 km/h 6.4 km/h 67% 0 mm 0 W/m2
05:14 4.8 °C -0.8 °C 1021.2 hPa Calm   6.4 km/h 67% 0 mm 0 W/m2
05:19 4.8 °C -0.8 °C 1021.2 hPa Calm   6.4 km/h 67.2% 0 mm 0 W/m2
05:24 4.8 °C -0.6 °C 1021.2 hPa NNW 1.6 km/h 8 km/h 68.3% 0 mm 0 W/m2
05:29 4.8 °C -0.1 °C 1021.2 hPa NNW 0.3 km/h 8 km/h 70.6% 0 mm 0 W/m2
05:34 4.7 °C 0 °C 1021.2 hPa Calm   8 km/h 71.6% 0 mm 0 W/m2
05:39 4.7 °C 0.2 °C 1021.2 hPa NNW 0.2 km/h 3.2 km/h 72.8% 0 mm 0 W/m2
05:44 4.6 °C 0.3 °C 1021.2 hPa NNW 0.3 km/h 3.2 km/h 73.9% 0 mm 0 W/m2
05:49 4.5 °C 0.4 °C 1021.2 hPa Calm   3.2 km/h 74.6% 0 mm 0 W/m2
05:54 4.5 °C 0.6 °C 1021.6 hPa Calm   3.2 km/h 75.9% 0 mm 0 W/m2
05:59 4.4 °C 0.3 °C 1021.2 hPa Calm   3.2 km/h 75% 0 mm 0 W/m2
06:04 4.3 °C 0.3 °C 1021.6 hPa Calm   3.2 km/h 75% 0.25 mm 0 W/m2
06:09 4.3 °C 0.2 °C 1021.6 hPa Calm     75% 0.25 mm 0 W/m2
06:14 4.2 °C 0.2 °C 1021.6 hPa Calm   1.6 km/h 74.8% 0.25 mm 0 W/m2
06:19 4.2 °C 0.1 °C 1021.2 hPa Calm   1.6 km/h 74.5% 0.25 mm 0 W/m2
06:24 4.2 °C 0.2 °C 1021.6 hPa Calm   1.6 km/h 75% 0.25 mm 0 W/m2
06:29 4.2 °C 0.3 °C 1021.6 hPa NNW 0.2 km/h 3.2 km/h 76% 0.25 mm 0 W/m2
06:34 4.2 °C 0.2 °C 1021.6 hPa Calm   3.2 km/h 75.2% 0.25 mm 0 W/m2
06:39 4.2 °C 0.1 °C 1021.2 hPa Calm     74.9% 0.25 mm 0 W/m2
06:44 4.2 °C 0.1 °C 1021.2 hPa Calm     74.7% 0.25 mm 0 W/m2
06:49 4.2 °C 0.2 °C 1021.6 hPa Calm     75% 0.25 mm 0 W/m2
06:54 4.2 °C 0.2 °C 1021.6 hPa Calm     75% 0.25 mm 0 W/m2
06:59 4.2 °C 0.2 °C 1021.9 hPa Calm     75% 0.25 mm 0 W/m2
07:04 4.2 °C 0.3 °C 1021.9 hPa Calm     76% 0.25 mm 0 W/m2
07:09 4.2 °C 0.3 °C 1021.9 hPa Calm     76% 0.25 mm 0 W/m2
07:14 4.2 °C 0.3 °C 1021.6 hPa Calm     76% 0.25 mm 0 W/m2
07:19 4.1 °C 0.2 °C 1021.6 hPa Calm     76% 0.25 mm 0 W/m2
07:24 4.1 °C 0.5 °C 1021.6 hPa Calm     77.6% 0.25 mm 0 W/m2
07:29 4.1 °C 0.6 °C 1021.6 hPa Calm     78% 0.25 mm 0 W/m2
07:34 4 °C 0.7 °C 1021.6 hPa Calm     78.8% 0.25 mm 0 W/m2
07:39 3.9 °C 0.7 °C 1021.6 hPa Calm     79.3% 0 mm 0 W/m2
07:44 3.9 °C 0.7 °C 1021.9 hPa Calm     80% 0 mm 5 W/m2
07:49 3.8 °C 0.7 °C 1021.9 hPa Calm     80% 0 mm 7 W/m2
07:54 3.8 °C 0.6 °C 1021.9 hPa Calm     80% 0 mm 9 W/m2
07:59 3.7 °C 0.7 °C 1021.9 hPa Calm     80.5% 0 mm 12 W/m2
08:00 3.7 °C 0.7 °C 1021.9 hPa Calm     81% 0 mm 12 W/m2
08:09 3.6 °C 0.7 °C 1021.9 hPa Calm     81% 0 mm 21 W/m2
08:14 3.6 °C 0.7 °C 1021.9 hPa Calm     81% 0 mm 23 W/m2
08:19 3.6 °C 0.7 °C 1021.9 hPa Calm     81% 0.25 mm 23 W/m2
08:24 3.6 °C 0.7 °C 1021.6 hPa Calm     81% 0.25 mm 28 W/m2
08:29 3.7 °C 0.7 °C 1021.6 hPa Calm     81% 0.25 mm 46 W/m2
08:34 3.6 °C 0.6 °C 1021.6 hPa Calm     80.5% 0.25 mm 49 W/m2
08:39 3.6 °C 0.5 °C 1021.6 hPa Calm     80% 0.25 mm 40 W/m2
08:44 3.6 °C 0.5 °C 1021.6 hPa Calm     80% 0.25 mm 39 W/m2
08:49 3.7 °C 0.7 °C 1021.6 hPa Calm     80.8% 0.25 mm 35 W/m2
08:54 3.7 °C 0.7 °C 1021.6 hPa Calm     80.5% 0.25 mm 47 W/m2
08:59 3.8 °C 0.7 °C 1021.6 hPa Calm     80% 0.25 mm 54 W/m2
09:04 3.8 °C 0.6 °C 1021.6 hPa Calm     79.6% 0.25 mm 51 W/m2
09:09 3.8 °C 0.6 °C 1021.6 hPa Calm     79% 0.25 mm 54 W/m2
09:14 3.9 °C 0.6 °C 1021.2 hPa Calm     79% 0.25 mm 62 W/m2
09:19 4 °C 0.7 °C 1021.6 hPa Calm     79.3% 0.25 mm 76 W/m2
09:24 4.1 °C 0.9 °C 1021.6 hPa Calm     80% 0.25 mm 76 W/m2
09:29 4.2 °C 0.8 °C 1021.6 hPa Calm     79.1% 0.51 mm 74 W/m2
09:34 4.2 °C 0.7 °C 1021.6 hPa Calm     78% 0.51 mm 65 W/m2
09:39 4.3 °C 0.7 °C 1021.6 hPa Calm     77.3% 0.25 mm 42 W/m2
09:44 4.3 °C 0.5 °C 1021.6 hPa Calm     76.3% 0.25 mm 42 W/m2
09:49 4.3 °C 0.3 °C 1021.6 hPa Calm     75.3% 0.25 mm 40 W/m2
09:54 4.4 °C 0.3 °C 1021.6 hPa Calm     75% 0.25 mm 37 W/m2
09:59 4.4 °C 0.3 °C 1021.6 hPa Calm     75% 0.25 mm 70 W/m2
10:04 4.4 °C 0.4 °C 1021.2 hPa Calm     75% 0.25 mm 72 W/m2
10:09 4.4 °C 0.3 °C 1021.2 hPa Calm     74.3% 0.25 mm 58 W/m2
10:14 4.5 °C 0.4 °C 1021.2 hPa Calm     74.8% 0.25 mm 54 W/m2
10:19 4.6 °C 0.3 °C 1021.2 hPa Calm     74% 0.25 mm 70 W/m2
10:24 4.6 °C 0.2 °C 1020.9 hPa Calm     73.5% 0.25 mm 69 W/m2
10:29 4.6 °C 0.3 °C 1020.9 hPa Calm     74% 0.25 mm 74 W/m2
10:34 4.6 °C 0.3 °C 1020.9 hPa Calm     74.2% 0.25 mm 83 W/m2
10:39 4.6 °C 0.6 °C 1020.9 hPa Calm     74.9% 0 mm 83 W/m2
10:44 4.6 °C 0.6 °C 1020.5 hPa Calm     75% 0 mm 98 W/m2
10:49 4.6 °C 0.8 °C 1020.5 hPa Calm     76.3% 0 mm 86 W/m2
10:54 4.7 °C 1.2 °C 1020.2 hPa NNW 0.2 km/h 3.2 km/h 77.8% 0 mm 97 W/m2
10:59 4.7 °C 0.8 °C 1019.9 hPa NNW 0.2 km/h 3.2 km/h 76.2% 0 mm 97 W/m2
11:04 4.7 °C 0.7 °C 1019.9 hPa Calm   3.2 km/h 75.4% 0 mm 83 W/m2
11:09 4.6 °C 0.4 °C 1019.9 hPa Calm     74.2% 0 mm 79 W/m2
11:14 4.6 °C 0.4 °C 1019.9 hPa Calm     74% 0 mm 58 W/m2
11:19 4.6 °C 0.3 °C 1019.9 hPa Calm     73.5% 0 mm 58 W/m2
11:24 4.6 °C 0.4 °C 1019.9 hPa Calm     74.2% 0 mm 62 W/m2
11:29 4.6 °C 0.6 °C 1019.5 hPa Calm     75% 0 mm 67 W/m2
11:34 4.6 °C 0.5 °C 1019.5 hPa Calm     74.7% 0 mm 67 W/m2
11:39 4.6 °C 0.6 °C 1019.5 hPa Calm     75.2% 0 mm 56 W/m2
11:44 4.6 °C 0.6 °C 1019.5 hPa Calm     75.6% 0 mm 53 W/m2
11:49 4.5 °C 0.7 °C 1019.5 hPa Calm     76.4% 0 mm 69 W/m2
11:54 4.5 °C 0.9 °C 1019.2 hPa Calm     77.5% 0.25 mm 70 W/m2
11:59 4.4 °C 1 °C 1019.2 hPa Calm     78.2% 0.25 mm 62 W/m2
12:00 4.4 °C 1.1 °C 1018.8 hPa Calm     79% 0.25 mm 62 W/m2
12:09 4.4 °C 1.3 °C 1019.2 hPa Calm     80% 0.25 mm 72 W/m2
12:14 4.5 °C 1.4 °C 1019.2 hPa Calm     80.3% 0.25 mm 65 W/m2
12:19 4.5 °C 1.5 °C 1019.2 hPa Calm     80.7% 0.51 mm 58 W/m2
12:24 4.4 °C 1.4 °C 1018.8 hPa Calm     80.5% 0.51 mm 72 W/m2
12:29 4.4 °C 1.5 °C 1018.8 hPa Calm     81.7% 0.51 mm 77 W/m2
12:34 4.3 °C 1.6 °C 1018.8 hPa Calm     82.2% 0.51 mm 49 W/m2
12:39 4.3 °C 1.7 °C 1018.8 hPa Calm     83% 0.51 mm 35 W/m2
12:44 4.3 °C 1.7 °C 1018.8 hPa Calm     83.1% 0.51 mm 46 W/m2
12:49 4.2 °C 1.7 °C 1018.5 hPa NNW 0.5 km/h 4.8 km/h 83.8% 0.51 mm 54 W/m2
12:54 4.1 °C 1.7 °C 1018.2 hPa Calm   4.8 km/h 84% 0.51 mm 54 W/m2
12:59 4.1 °C 1.6 °C 1018.2 hPa Calm   4.8 km/h 84% 0.51 mm 54 W/m2
13:04 4 °C 1.6 °C 1018.2 hPa NNW 0.5 km/h 4.8 km/h 84.4% 0.51 mm 46 W/m2
13:09 4 °C 1.7 °C 1018.2 hPa NNW 1.3 km/h 4.8 km/h 85% 0.25 mm 49 W/m2
13:14 3.9 °C 1.7 °C 1017.8 hPa NNW 1.1 km/h 4.8 km/h 85% 0.51 mm 46 W/m2
13:19 3.9 °C 1.7 °C 1017.5 hPa NNW 0.3 km/h 4.8 km/h 85% 0.51 mm 51 W/m2
13:24 3.9 °C 1.7 °C 1017.8 hPa NNW 0.6 km/h 4.8 km/h 85.4% 0.51 mm 40 W/m2
13:29 3.9 °C 1.8 °C 1017.8 hPa NNW 0.8 km/h 4.8 km/h 86% 0.51 mm 30 W/m2
13:34 3.8 °C 1.7 °C 1017.5 hPa NNW 2.4 km/h 8 km/h 86% 0.51 mm 30 W/m2
13:39 3.8 °C 1.7 °C 1017.2 hPa NNE 3.1 km/h 8 km/h 86% 0.51 mm 32 W/m2
13:44 3.7 °C 1.8 °C 1017.2 hPa NE 1.8 km/h 8 km/h 86.9% 0.51 mm 33 W/m2
13:49 3.7 °C 1.8 °C 1017.5 hPa NE 3.1 km/h 8 km/h 87% 0.76 mm 28 W/m2
13:54 3.7 °C 1.7 °C 1017.5 hPa NE 1.3 km/h 8 km/h 87% 0.76 mm 26 W/m2
13:59 3.6 °C 1.7 °C 1017.5 hPa NE 3.9 km/h 8 km/h 87% 0.76 mm 47 W/m2
14:04 3.6 °C 1.7 °C 1016.8 hPa NE 2.6 km/h 8 km/h 87.2% 0.76 mm 63 W/m2
14:09 3.6 °C 1.8 °C 1016.8 hPa NE 1.1 km/h 6.4 km/h 88% 0.76 mm 30 W/m2
14:14 3.6 °C 1.8 °C 1017.2 hPa NE 1.4 km/h 6.4 km/h 88% 0.76 mm 25 W/m2
14:19 3.6 °C 1.8 °C 1016.8 hPa NE 1.6 km/h 6.4 km/h 88% 0.76 mm 19 W/m2
14:24 3.6 °C 1.9 °C 1016.8 hPa NE 1.6 km/h 6.4 km/h 88.7% 0.76 mm 25 W/m2
14:29 3.5 °C 1.8 °C 1016.8 hPa NE 1.8 km/h 9.7 km/h 88.7% 0.76 mm 25 W/m2
14:34 3.5 °C 1.8 °C 1016.5 hPa NE 1.6 km/h 9.7 km/h 89% 0.76 mm 23 W/m2
14:39 3.5 °C 1.8 °C 1016.5 hPa NE 2.3 km/h 6.4 km/h 89% 0.76 mm 23 W/m2
14:44 3.4 °C 1.8 °C 1016.5 hPa ENE 4.7 km/h 11.3 km/h 89% 0.76 mm 21 W/m2
14:49 3.3 °C 1.8 °C 1016.1 hPa ENE 2.1 km/h 11.3 km/h 89.5% 0.76 mm 12 W/m2
14:54 3.3 °C 1.8 °C 1016.5 hPa ENE 1.4 km/h 11.3 km/h 90% 0.76 mm 9 W/m2
14:59 3.3 °C 1.8 °C 1016.5 hPa ENE 1.9 km/h 11.3 km/h 90% 0.76 mm 7 W/m2
15:04 3.2 °C 1.7 °C 1016.5 hPa ENE 1.6 km/h 11.3 km/h 90% 0.76 mm 9 W/m2
15:09 3.2 °C 1.8 °C 1016.5 hPa ENE 0.5 km/h 8 km/h 90.4% 0.51 mm 5 W/m2
15:14 3.2 °C 1.9 °C 1016.5 hPa ENE 0.5 km/h 8 km/h 91% 0.51 mm 0 W/m2
15:19 3.2 °C 1.9 °C 1016.1 hPa ENE 1.6 km/h 8 km/h 91% 0.76 mm 5 W/m2
15:24 3.2 °C 1.9 °C 1016.1 hPa ENE 2.1 km/h 9.7 km/h 91% 1.02 mm 5 W/m2
15:29 3.2 °C 1.9 °C 1016.1 hPa ENE 2.6 km/h 9.7 km/h 91% 1.02 mm 0 W/m2
15:34 3.2 °C 1.8 °C 1016.1 hPa ENE 3.9 km/h 9.7 km/h 91% 1.27 mm 5 W/m2
15:39 3.1 °C 1.8 °C 1015.8 hPa ENE 1.4 km/h 9.7 km/h 91.4% 1.27 mm 5 W/m2
15:44 3.1 °C 1.9 °C 1015.8 hPa ENE 1.1 km/h 9.7 km/h 92% 1.27 mm 0 W/m2
15:49 3.1 °C 1.9 °C 1015.5 hPa ENE 1.1 km/h 9.7 km/h 92% 1.27 mm 0 W/m2
15:54 3.1 °C 1.9 °C 1015.5 hPa ENE 3.7 km/h 9.7 km/h 92% 1.27 mm 0 W/m2
15:59 3 °C 1.8 °C 1015.5 hPa ENE 3.9 km/h 9.7 km/h 92% 1.27 mm 0 W/m2
16:00 3 °C 1.8 °C 1015.1 hPa ENE 3.2 km/h 9.7 km/h 92% 1.27 mm 0 W/m2
16:09 2.9 °C 1.8 °C 1015.1 hPa ENE 2.3 km/h 9.7 km/h 92% 1.52 mm 0 W/m2
16:14 2.9 °C 1.8 °C 1015.1 hPa ENE 2.1 km/h 9.7 km/h 92% 1.52 mm 0 W/m2
16:19 2.9 °C 1.9 °C 1015.1 hPa ENE 0.8 km/h 9.7 km/h 92.9% 1.52 mm 0 W/m2
16:24 2.9 °C 1.9 °C 1015.1 hPa ENE 1.3 km/h 9.7 km/h 93% 1.52 mm 0 W/m2
16:29 2.8 °C 1.7 °C 1014.8 hPa ENE 1.6 km/h 9.7 km/h 92.1% 1.52 mm 0 W/m2
16:34 2.8 °C 1.6 °C 1014.8 hPa ENE 3.9 km/h 9.7 km/h 92% 1.52 mm 0 W/m2
16:39 2.7 °C 1.6 °C 1014.8 hPa ENE 2.6 km/h 9.7 km/h 92.2% 0.51 mm 0 W/m2
16:44 2.7 °C 1.7 °C 1014.8 hPa ENE 1.4 km/h 9.7 km/h 93% 0.76 mm 0 W/m2
16:49 2.7 °C 1.7 °C 1014.8 hPa ENE 2.9 km/h 9.7 km/h 93% 0.76 mm 0 W/m2
16:54 2.7 °C 1.6 °C 1014.4 hPa Calm   9.7 km/h 93% 0.76 mm 0 W/m2
16:59 2.7 °C 1.7 °C 1014.4 hPa Calm   9.7 km/h 93% 0.76 mm 0 W/m2
17:04 2.7 °C 1.7 °C 1014.4 hPa ENE 0.6 km/h 9.7 km/h 93% 0.76 mm 0 W/m2
17:09 2.7 °C 1.7 °C 1014.4 hPa ENE 0.8 km/h 4.8 km/h 93% 0.25 mm 0 W/m2
17:14 2.7 °C 1.7 °C 1014.4 hPa Calm   4.8 km/h 93% 0.25 mm 0 W/m2
17:19 2.8 °C 1.7 °C 1014.4 hPa Calm   4.8 km/h 93% 0.25 mm 0 W/m2
17:24 2.8 °C 1.7 °C 1014.1 hPa Calm   4.8 km/h 93% 0.25 mm 0 W/m2
17:29 2.8 °C 1.8 °C 1014.4 hPa Calm   4.8 km/h 93% 0.25 mm 0 W/m2
17:34 2.8 °C 1.8 °C 1014.4 hPa Calm   4.8 km/h 93% 0.25 mm 0 W/m2
17:39 2.8 °C 1.8 °C 1014.4 hPa Calm     93% 0.25 mm 0 W/m2
17:44 2.8 °C 1.9 °C 1014.4 hPa ENE 1 km/h 6.4 km/h 93.8% 0.25 mm 0 W/m2
17:49 2.8 °C 1.9 °C 1014.1 hPa Calm   6.4 km/h 94% 0.25 mm 0 W/m2
17:54 2.8 °C 2 °C 1014.1 hPa ENE 0.5 km/h 6.4 km/h 94% 0.51 mm 0 W/m2
17:59 2.9 °C 2 °C 1014.1 hPa ENE 0.2 km/h 6.4 km/h 94% 0.51 mm 0 W/m2
18:04 2.9 °C 2 °C 1014.1 hPa Calm   6.4 km/h 94% 0.51 mm 0 W/m2
18:09 2.8 °C 1.9 °C 1013.8 hPa Calm     94% 0.25 mm 0 W/m2
18:14 2.8 °C 1.9 °C 1013.8 hPa ENE 0.3 km/h 3.2 km/h 93.6% 0.25 mm 0 W/m2
18:19 2.8 °C 1.8 °C 1013.8 hPa ENE 0.2 km/h 3.2 km/h 93.3% 0.25 mm 0 W/m2
18:24 2.8 °C 1.9 °C 1013.8 hPa Calm   3.2 km/h 94% 0.51 mm 0 W/m2
18:29 2.8 °C 1.9 °C 1013.4 hPa Calm   3.2 km/h 94% 0.51 mm 0 W/m2
18:34 2.8 °C 1.9 °C 1013.8 hPa Calm   3.2 km/h 94% 0.51 mm 0 W/m2
18:39 2.8 °C 1.9 °C 1013.8 hPa ENE 1.1 km/h 4.8 km/h 94% 0.51 mm 0 W/m2
18:44 2.8 °C 1.9 °C 1013.4 hPa ENE 0.6 km/h 4.8 km/h 94% 0.51 mm 0 W/m2
18:49 2.8 °C 1.9 °C 1013.4 hPa ENE 0.8 km/h 8 km/h 94% 0.51 mm 0 W/m2
18:54 2.8 °C 1.9 °C 1013.4 hPa ENE 0.2 km/h 8 km/h 94% 0.76 mm 0 W/m2
18:59 2.8 °C 1.9 °C 1013.1 hPa Calm   8 km/h 94% 0.76 mm 0 W/m2
19:04 2.8 °C 1.9 °C 1013.1 hPa Calm   8 km/h 94% 0.76 mm 0 W/m2
19:09 2.8 °C 1.9 °C 1013.1 hPa Calm     94% 0.51 mm 0 W/m2
19:14 2.8 °C 1.9 °C 1013.1 hPa ENE 1.1 km/h 4.8 km/h 94% 0.51 mm 0 W/m2
19:19 2.8 °C 1.9 °C 1013.1 hPa ENE 0.2 km/h 4.8 km/h 94% 0.76 mm 0 W/m2
19:24 2.8 °C 1.9 °C 1012.8 hPa ENE 0.3 km/h 4.8 km/h 94% 0.76 mm 0 W/m2
19:29 2.8 °C 1.9 °C 1012.8 hPa Calm   4.8 km/h 94% 0.76 mm 0 W/m2
19:34 2.8 °C 1.9 °C 1012.8 hPa ENE 0.5 km/h 4.8 km/h 94% 0.76 mm 0 W/m2
19:39 2.8 °C 1.9 °C 1012.8 hPa Calm   4.8 km/h 94% 0.51 mm 0 W/m2
19:44 2.8 °C 1.9 °C 1012.8 hPa Calm   4.8 km/h 94% 0.51 mm 0 W/m2
19:49 2.8 °C 2 °C 1012.8 hPa ENE 0.5 km/h 4.8 km/h 94% 0.51 mm 0 W/m2
19:54 2.8 °C 2 °C 1012.4 hPa ENE 1.4 km/h 8 km/h 94% 0.51 mm 0 W/m2
19:59 2.8 °C 2 °C 1012.4 hPa ENE 1.8 km/h 8 km/h 94% 0.51 mm 0 W/m2
20:00 2.8 °C 1.9 °C 1012.4 hPa ENE 4 km/h 8 km/h 94% 0.51 mm 0 W/m2
20:09 2.8 °C 1.9 °C 1012.4 hPa ENE 0.3 km/h 3.2 km/h 94% 0.51 mm 0 W/m2
20:14 2.8 °C 1.9 °C 1012.1 hPa ENE 0.8 km/h 4.8 km/h 94% 0.51 mm 0 W/m2
20:19 2.8 °C 1.9 °C 1012.1 hPa ENE 1.6 km/h 6.4 km/h 94% 0.51 mm 0 W/m2
20:24 2.8 °C 1.9 °C 1012.1 hPa ENE 1.6 km/h 6.4 km/h 94% 0.51 mm 0 W/m2
20:29 2.8 °C 2 °C 1012.1 hPa ENE 1.9 km/h 6.4 km/h 94.4% 0.51 mm 0 W/m2
20:34 2.8 °C 2.1 °C 1012.1 hPa ENE 0.6 km/h 6.4 km/h 95% 0.51 mm 0 W/m2
20:39 2.8 °C 2.1 °C 1011.7 hPa ENE 0.2 km/h 4.8 km/h 95% 0.25 mm 0 W/m2
20:44 2.8 °C 2.1 °C 1011.7 hPa ENE 1.9 km/h 6.4 km/h 94.5% 0.51 mm 0 W/m2
20:49 2.8 °C 1.9 °C 1011.7 hPa ENE 1.3 km/h 6.4 km/h 94% 0.51 mm 0 W/m2
20:54 2.8 °C 1.9 °C 1011.4 hPa ENE 0.8 km/h 6.4 km/h 94% 0.51 mm 0 W/m2
20:59 2.8 °C 1.9 °C 1011.4 hPa ENE 1.3 km/h 6.4 km/h 94% 0.51 mm 0 W/m2
21:04 2.7 °C 1.9 °C 1011.4 hPa ENE 0.8 km/h 8 km/h 94% 0.51 mm 0 W/m2
21:09 2.7 °C 1.8 °C 1011.1 hPa ENE 1 km/h 9.7 km/h 94.2% 0.51 mm 0 W/m2
21:14 2.7 °C 1.9 °C 1010.7 hPa ENE 0.6 km/h 9.7 km/h 94.9% 0.51 mm 0 W/m2
21:19 2.6 °C 1.9 °C 1010.7 hPa Calm   9.7 km/h 95% 0.76 mm 0 W/m2
21:24 2.6 °C 1.9 °C 1010.7 hPa ENE 1.1 km/h 9.7 km/h 95% 0.76 mm 0 W/m2
21:29 2.6 °C 1.9 °C 1010.4 hPa ENE 0.8 km/h 9.7 km/h 95% 0.76 mm 0 W/m2
21:34 2.6 °C 1.9 °C 1010.4 hPa ENE 2.3 km/h 9.7 km/h 95% 0.76 mm 0 W/m2
21:39 2.6 °C 1.8 °C 1010.4 hPa Calm   6.4 km/h 95% 0.51 mm 0 W/m2
21:44 2.6 °C 1.9 °C 1010 hPa ENE 0.2 km/h 6.4 km/h 95% 0.51 mm 0 W/m2
21:49 2.6 °C 1.8 °C 1010 hPa Calm   6.4 km/h 95% 0.51 mm 0 W/m2
21:54 2.6 °C 1.8 °C 1010 hPa ENE 0.2 km/h 6.4 km/h 95% 0.76 mm 0 W/m2
21:59 2.6 °C 1.8 °C 1009.7 hPa ENE 0.2 km/h 6.4 km/h 95% 0.76 mm 0 W/m2
22:04 2.6 °C 1.8 °C 1009.7 hPa ENE 0.2 km/h 6.4 km/h 95% 0.76 mm 0 W/m2
22:05 2.6 °C 1.8 °C 1009.7 hPa Calm   3.2 km/h 95% 0.51 mm 0 W/m2
22:30 2.5 °C 1.8 °C 1009 hPa Calm   9.7 km/h 95% 0.76 mm 0 W/m2
23:04 2.5 °C 1.8 °C 1009 hPa NE 3.5 km/h 9.7 km/h 95% 0.76 mm 0 W/m2
23:09 2.5 °C 1.8 °C 1009 hPa NE 2.1 km/h 8 km/h 95% 0.51 mm 0 W/m2
23:14 2.5 °C 1.8 °C 1009.4 hPa NE 1.1 km/h 8 km/h 95% 0.51 mm 0 W/m2
23:19 2.5 °C 1.8 °C 1009 hPa North 4.5 km/h 9.7 km/h 95% 0.51 mm 0 W/m2
23:24 2.5 °C 1.8 °C 1009 hPa NNW 3.7 km/h 11.3 km/h 95% 0.51 mm 0 W/m2
23:29 2.5 °C 1.8 °C 1009 hPa NNW 0.5 km/h 11.3 km/h 95% 0.51 mm 0 W/m2
23:34 2.5 °C 1.8 °C 1009 hPa NNW 1.6 km/h 11.3 km/h 95% 0.51 mm 0 W/m2
23:39 2.6 °C 1.8 °C 1009 hPa NNW 4.3 km/h 9.7 km/h 95% 0.76 mm 0 W/m2
23:44 2.6 °C 1.8 °C 1009 hPa NNW 0.8 km/h 9.7 km/h 95% 1.27 mm 0 W/m2
23:49 2.6 °C 1.8 °C 1009 hPa NNW 4.2 km/h 9.7 km/h 95% 1.78 mm 0 W/m2
23:54 2.6 °C 1.8 °C 1008.7 hPa NNW 1.1 km/h 9.7 km/h 95% 2.03 mm 0 W/m2
23:59 2.6 °C 1.8 °C 1008.7 hPa NW 2.4 km/h 9.7 km/h 95% 2.29 mm 0 W/m2
Hartford County Weather
Compliments of Weather Underground - 4 mb